createdAt,value
2023-05-08T00:01:18.308Z,3.17
2023-05-08T00:02:42.345Z,2.80
2023-05-08T00:04:06.403Z,3.28
2023-05-08T00:05:29.092Z,2.83
2023-05-08T00:06:53.035Z,2.97
2023-05-08T00:08:15.493Z,2.50
2023-05-08T00:09:39.458Z,3.00
2023-05-08T00:11:01.860Z,2.83
2023-05-08T00:12:25.389Z,2.95
2023-05-08T00:13:48.786Z,3.08
2023-05-08T00:15:12.706Z,3.25
2023-05-08T00:16:36.155Z,3.00
2023-05-08T00:17:59.250Z,2.63
2023-05-08T00:19:22.717Z,3.08
2023-05-08T00:20:46.117Z,2.72
2023-05-08T00:22:09.525Z,3.10
2023-05-08T00:23:32.050Z,2.90
2023-05-08T00:24:59.343Z,2.83
2023-05-08T00:26:22.073Z,2.67
2023-05-08T00:27:45.427Z,3.03
2023-05-08T00:29:07.800Z,2.85
2023-05-08T00:30:32.637Z,2.88
2023-05-08T00:31:55.096Z,2.65
2023-05-08T00:33:18.594Z,2.88
2023-05-08T00:34:40.987Z,3.00
2023-05-08T00:36:05.521Z,2.92
2023-05-08T00:37:28.909Z,2.92
2023-05-08T00:38:52.344Z,3.08
2023-05-08T00:40:14.981Z,2.90
2023-05-08T00:41:39.305Z,3.20
2023-05-08T00:43:01.756Z,3.40
2023-05-08T00:44:25.169Z,3.08
2023-05-08T00:45:48.957Z,2.88
2023-05-08T00:47:13.236Z,3.30
2023-05-08T00:48:35.973Z,2.83
2023-05-08T00:50:00.365Z,2.78
2023-05-08T00:51:23.857Z,3.35
2023-05-08T00:52:47.128Z,3.05
2023-05-08T00:54:10.748Z,3.28
2023-05-08T00:55:34.659Z,3.10
2023-05-08T00:56:58.242Z,2.90
2023-05-08T00:58:21.635Z,3.08
2023-05-08T00:59:47.086Z,2.90
2023-05-08T01:01:12.088Z,3.10
2023-05-08T01:02:36.140Z,3.30
2023-05-08T01:03:59.934Z,3.13
2023-05-08T01:05:22.337Z,2.95
2023-05-08T01:06:45.702Z,3.03
2023-05-08T01:08:09.208Z,3.08
2023-05-08T01:09:31.754Z,3.15
2023-05-08T01:11:00.275Z,2.97
2023-05-08T01:12:26.995Z,3.20
2023-05-08T01:13:57.529Z,2.95
2023-05-08T01:15:25.389Z,3.05
2023-05-08T01:16:58.909Z,3.20
2023-05-08T01:18:27.777Z,3.30
2023-05-08T01:19:58.446Z,2.90
2023-05-08T01:21:28.707Z,3.80
2023-05-08T01:23:28.505Z,2.72
2023-05-08T01:25:17.829Z,3.35
2023-05-08T01:26:58.465Z,3.40
2023-05-08T01:28:43.615Z,3.50
2023-05-08T01:30:25.723Z,3.50
2023-05-08T01:32:08.225Z,3.22
2023-05-08T01:33:36.642Z,3.55
2023-05-08T01:35:04.052Z,2.92
2023-05-08T01:36:34.787Z,3.95
2023-05-08T01:38:04.911Z,3.10
2023-05-08T01:39:35.449Z,3.33
2023-05-08T01:41:03.362Z,3.67
2023-05-08T01:42:34.419Z,3.50
2023-05-08T01:44:17.653Z,3.38
2023-05-08T01:45:41.052Z,2.88
2023-05-08T01:47:09.101Z,3.70
2023-05-08T01:48:35.173Z,3.78
2023-05-08T01:50:04.310Z,3.70
2023-05-08T01:51:28.924Z,3.40
2023-05-08T01:52:58.052Z,3.50
2023-05-08T01:54:24.882Z,3.53
2023-05-08T01:55:48.351Z,3.70
2023-05-08T01:57:12.785Z,3.67
2023-05-08T01:58:35.942Z,3.88
2023-05-08T02:00:02.815Z,4.13
2023-05-08T02:01:29.588Z,3.83
2023-05-08T02:02:54.344Z,4.13
2023-05-08T02:04:19.040Z,4.00
2023-05-08T02:05:43.261Z,4.38
2023-05-08T02:07:07.147Z,3.70
2023-05-08T02:08:30.582Z,3.50
2023-05-08T02:09:55.414Z,3.75
2023-05-08T02:11:19.919Z,3.90
2023-05-08T02:12:43.809Z,3.22
2023-05-08T02:14:08.618Z,3.72
2023-05-08T02:15:35.948Z,3.83
2023-05-08T02:16:58.991Z,3.88
2023-05-08T02:18:25.602Z,3.85
2023-05-08T02:19:48.527Z,3.78
2023-05-08T02:21:13.404Z,3.17
2023-05-08T02:22:36.013Z,4.13
2023-05-08T02:24:00.056Z,3.40
2023-05-08T02:25:22.882Z,4.05
2023-05-08T02:26:46.918Z,3.47
2023-05-08T02:28:09.796Z,3.22
2023-05-08T02:29:33.624Z,3.90
2023-05-08T02:30:57.653Z,3.15
2023-05-08T02:32:21.922Z,3.83
2023-05-08T02:33:46.498Z,2.85
2023-05-08T02:35:11.025Z,3.80
2023-05-08T02:36:34.516Z,4.07
2023-05-08T02:37:58.585Z,3.85
2023-05-08T02:39:22.815Z,3.90
2023-05-08T02:40:50.760Z,4.05
2023-05-08T02:42:14.280Z,4.65
2023-05-08T02:43:37.982Z,3.72
2023-05-08T02:45:00.569Z,4.07
2023-05-08T02:46:28.522Z,4.15
2023-05-08T02:47:57.303Z,3.75
2023-05-08T02:49:29.103Z,3.47
2023-05-08T02:50:59.098Z,3.30
2023-05-08T02:52:28.037Z,3.80
2023-05-08T02:53:54.316Z,4.03
2023-05-08T02:55:31.798Z,3.60
2023-05-08T02:56:59.554Z,3.92
2023-05-08T02:58:31.143Z,4.28
2023-05-08T03:00:01.349Z,3.97
2023-05-08T03:01:27.079Z,3.38
2023-05-08T03:02:54.630Z,3.85
2023-05-08T03:04:26.400Z,3.78
2023-05-08T03:05:53.781Z,3.80
2023-05-08T03:07:17.114Z,4.53
2023-05-08T03:08:41.984Z,3.67
2023-05-08T03:10:09.327Z,3.85
2023-05-08T03:11:40.207Z,4.13
2023-05-08T03:13:04.684Z,3.92
2023-05-08T03:14:28.918Z,4.50
2023-05-08T03:15:56.562Z,3.33
2023-05-08T03:17:20.854Z,4.53
2023-05-08T03:18:46.555Z,4.35
2023-05-08T03:20:15.930Z,4.53
2023-05-08T03:21:40.570Z,2.80
2023-05-08T03:23:04.835Z,3.53
2023-05-08T03:24:29.829Z,4.00
2023-05-08T03:25:52.437Z,4.13
2023-05-08T03:27:16.912Z,3.30
2023-05-08T03:28:40.194Z,3.75
2023-05-08T03:30:05.411Z,3.97
2023-05-08T03:31:29.580Z,4.22
2023-05-08T03:32:54.131Z,3.67
2023-05-08T03:34:19.350Z,3.78
2023-05-08T03:35:44.332Z,3.95
2023-05-08T03:37:07.873Z,4.30
2023-05-08T03:38:36.048Z,4.35
2023-05-08T03:39:58.781Z,4.50
2023-05-08T03:41:22.448Z,4.00
2023-05-08T03:42:46.124Z,3.47
2023-05-08T03:44:08.843Z,3.85
2023-05-08T03:45:34.235Z,3.50
2023-05-08T03:46:58.574Z,4.18
2023-05-08T03:48:22.576Z,4.30
2023-05-08T03:49:48.990Z,3.97
2023-05-08T03:51:14.068Z,4.07
2023-05-08T03:52:36.644Z,3.20
2023-05-08T03:54:00.088Z,3.63
2023-05-08T03:55:23.371Z,4.07
2023-05-08T03:56:47.840Z,3.50
2023-05-08T03:58:17.675Z,3.38
2023-05-08T03:59:45.877Z,4.05
2023-05-08T04:01:14.326Z,4.07
2023-05-08T04:02:42.529Z,3.55
2023-05-08T04:04:08.981Z,3.70
2023-05-08T04:05:37.540Z,3.55
2023-05-08T04:07:08.058Z,2.90
2023-05-08T04:08:33.733Z,3.35
2023-05-08T04:10:07.938Z,3.33
2023-05-08T04:11:35.508Z,3.67
2023-05-08T04:13:06.565Z,3.47
2023-05-08T04:14:36.491Z,2.58
2023-05-08T04:16:08.693Z,2.67
2023-05-08T04:17:37.683Z,3.33
2023-05-08T04:19:04.407Z,3.95
2023-05-08T04:20:28.133Z,3.67
2023-05-08T04:21:55.683Z,3.63
2023-05-08T04:23:22.555Z,2.72
2023-05-08T04:24:48.124Z,2.83
2023-05-08T04:26:13.473Z,2.55
2023-05-08T04:27:38.420Z,3.22
2023-05-08T04:29:01.014Z,3.80
2023-05-08T04:30:24.531Z,3.35
2023-05-08T04:31:47.778Z,3.42
2023-05-08T04:33:11.515Z,2.85
2023-05-08T04:34:34.352Z,3.60
2023-05-08T04:35:58.099Z,3.25
2023-05-08T04:37:28.996Z,3.85
2023-05-08T04:38:53.785Z,3.53
2023-05-08T04:40:17.210Z,4.20
2023-05-08T04:41:39.864Z,3.65
2023-05-08T04:43:05.126Z,3.78
2023-05-08T04:44:30.748Z,3.88
2023-05-08T04:45:53.331Z,4.35
2023-05-08T04:47:17.724Z,4.15
2023-05-08T04:48:41.275Z,3.78
2023-05-08T04:50:04.934Z,4.20
2023-05-08T04:51:29.375Z,4.22
2023-05-08T04:52:52.839Z,3.35
2023-05-08T04:54:19.588Z,3.55
2023-05-08T04:55:45.800Z,3.35
2023-05-08T04:57:09.593Z,3.40
2023-05-08T04:58:34.613Z,2.47
2023-05-08T04:59:58.262Z,3.58
2023-05-08T05:01:20.813Z,2.95
2023-05-08T05:02:44.359Z,3.60
2023-05-08T05:04:08.628Z,2.97
2023-05-08T05:05:31.214Z,3.60
2023-05-08T05:06:54.629Z,3.55
2023-05-08T05:08:17.040Z,3.35
2023-05-08T05:09:42.391Z,3.33
2023-05-08T05:11:06.696Z,3.40
2023-05-08T05:12:29.097Z,3.10
2023-05-08T05:13:52.530Z,2.97
2023-05-08T05:15:15.296Z,3.58
2023-05-08T05:16:38.791Z,2.08
2023-05-08T05:18:02.369Z,3.20
2023-05-08T05:19:24.926Z,3.42
2023-05-08T05:20:49.363Z,3.00
2023-05-08T05:22:12.753Z,3.22
2023-05-08T05:23:36.315Z,2.97
2023-05-08T05:25:00.198Z,3.22
2023-05-08T05:26:24.487Z,3.22
2023-05-08T05:27:46.929Z,3.25
2023-05-08T05:29:10.326Z,3.03
2023-05-08T05:30:34.039Z,3.00
2023-05-08T05:31:57.304Z,2.95
2023-05-08T05:33:20.855Z,2.78
2023-05-08T05:34:43.392Z,3.40
2023-05-08T05:36:07.869Z,2.88
2023-05-08T05:37:31.438Z,2.60
2023-05-08T05:38:54.900Z,2.70
2023-05-08T05:40:18.909Z,2.90
2023-05-08T05:41:44.162Z,2.90
2023-05-08T05:43:07.942Z,2.65
2023-05-08T05:44:30.401Z,2.92
2023-05-08T05:45:55.906Z,3.25
2023-05-08T05:47:18.583Z,3.20
2023-05-08T05:48:42.827Z,2.67
2023-05-08T05:50:07.057Z,2.97
2023-05-08T05:51:30.489Z,2.70
2023-05-08T05:52:54.330Z,2.47
2023-05-08T05:54:18.573Z,2.38
2023-05-08T05:55:43.436Z,2.72
2023-05-08T05:57:06.336Z,2.47
2023-05-08T05:58:29.752Z,3.10
2023-05-08T05:59:54.677Z,3.00
2023-05-08T06:01:20.641Z,2.67
2023-05-08T06:02:45.280Z,2.67
2023-05-08T06:04:07.905Z,3.28
2023-05-08T06:05:32.257Z,3.60
2023-05-08T06:06:55.783Z,2.75
2023-05-08T06:08:19.272Z,3.08
2023-05-08T06:09:42.752Z,2.60
2023-05-08T06:11:07.751Z,3.00
2023-05-08T06:12:33.983Z,2.65
2023-05-08T06:13:57.482Z,2.78
2023-05-08T06:15:21.061Z,2.60
2023-05-08T06:16:45.132Z,2.50
2023-05-08T06:18:07.821Z,2.70
2023-05-08T06:19:31.433Z,2.40
2023-05-08T06:20:58.544Z,2.33
2023-05-08T06:22:23.255Z,2.63
2023-05-08T06:23:46.673Z,2.25
2023-05-08T06:25:11.231Z,2.30
2023-05-08T06:26:36.189Z,2.47
2023-05-08T06:28:03.232Z,2.78
2023-05-08T06:29:25.634Z,2.25
2023-05-08T06:30:49.140Z,2.55
2023-05-08T06:32:12.713Z,2.67
2023-05-08T06:33:36.175Z,2.08
2023-05-08T06:34:59.622Z,2.38
2023-05-08T06:36:23.124Z,2.72
2023-05-08T06:37:46.622Z,2.25
2023-05-08T06:39:10.835Z,1.90
2023-05-08T06:40:34.289Z,2.10
2023-05-08T06:41:59.089Z,2.63
2023-05-08T06:43:22.751Z,2.30
2023-05-08T06:44:46.345Z,2.40
2023-05-08T06:46:09.843Z,1.90
2023-05-08T06:47:33.347Z,2.28
2023-05-08T06:48:56.735Z,2.40
2023-05-08T06:50:20.450Z,2.50
2023-05-08T06:51:44.124Z,2.00
2023-05-08T06:53:07.105Z,2.45
2023-05-08T06:54:30.499Z,1.73
2023-05-08T06:55:54.658Z,2.30
2023-05-08T06:57:19.402Z,2.40
2023-05-08T06:58:44.821Z,2.58
2023-05-08T07:00:12.967Z,2.08
2023-05-08T07:01:35.942Z,2.05
2023-05-08T07:02:59.424Z,2.67
2023-05-08T07:04:22.944Z,2.58
2023-05-08T07:05:46.469Z,2.47
2023-05-08T07:07:09.905Z,1.90
2023-05-08T07:08:33.352Z,2.28
2023-05-08T07:09:56.734Z,1.70
2023-05-08T07:11:20.145Z,1.73
2023-05-08T07:12:45.777Z,2.35
2023-05-08T07:14:09.201Z,1.77
2023-05-08T07:15:33.332Z,1.33
2023-05-08T07:16:56.723Z,1.75
2023-05-08T07:18:20.226Z,1.45
2023-05-08T07:19:43.713Z,1.50
2023-05-08T07:21:07.241Z,1.60
2023-05-08T07:22:30.703Z,1.90
2023-05-08T07:23:54.704Z,1.77
2023-05-08T07:25:17.207Z,2.08
2023-05-08T07:26:40.595Z,1.60
2023-05-08T07:28:05.588Z,1.80
2023-05-08T07:29:28.014Z,1.85
2023-05-08T07:30:51.673Z,1.33
2023-05-08T07:32:15.351Z,1.48
2023-05-08T07:33:38.816Z,1.52
2023-05-08T07:35:03.885Z,1.40
2023-05-08T07:36:27.405Z,2.25
2023-05-08T07:37:50.054Z,1.92
2023-05-08T07:39:13.439Z,1.98
2023-05-08T07:40:37.268Z,1.52
2023-05-08T07:42:01.512Z,2.10
2023-05-08T07:43:26.401Z,2.08
2023-05-08T07:44:54.949Z,1.92
2023-05-08T07:46:20.495Z,2.05
2023-05-08T07:47:51.384Z,1.90
2023-05-08T07:49:14.805Z,1.98
2023-05-08T07:50:38.209Z,1.77
2023-05-08T07:52:02.712Z,2.05
2023-05-08T07:53:26.195Z,1.85
2023-05-08T07:54:48.736Z,1.83
2023-05-08T07:56:12.178Z,1.65
2023-05-08T07:57:39.518Z,2.30
2023-05-08T07:59:04.305Z,2.50
2023-05-08T08:00:29.624Z,1.55
2023-05-08T08:01:53.443Z,1.85
2023-05-08T08:03:18.190Z,1.55
2023-05-08T08:04:41.726Z,2.25
2023-05-08T08:06:05.458Z,2.13
2023-05-08T08:07:29.067Z,1.65
2023-05-08T08:08:52.513Z,1.80
2023-05-08T08:10:15.948Z,1.70
2023-05-08T08:11:39.330Z,1.67
2023-05-08T08:13:03.024Z,1.83
2023-05-08T08:14:28.705Z,1.27
2023-05-08T08:15:52.110Z,2.05
2023-05-08T08:17:15.531Z,2.00
2023-05-08T08:18:39.013Z,1.70
2023-05-08T08:20:03.326Z,1.88
2023-05-08T08:21:27.131Z,2.10
2023-05-08T08:22:50.647Z,1.50
2023-05-08T08:24:14.103Z,2.00
2023-05-08T08:25:38.180Z,1.77
2023-05-08T08:27:01.636Z,1.70
2023-05-08T08:28:25.018Z,1.77
2023-05-08T08:30:08.329Z,1.50
2023-05-08T08:31:39.681Z,2.35
2023-05-08T08:33:03.366Z,1.55
2023-05-08T08:34:25.880Z,1.33
2023-05-08T08:35:49.323Z,1.58
2023-05-08T08:37:15.448Z,1.17
2023-05-08T08:38:38.806Z,2.13
2023-05-08T08:40:01.931Z,1.60
2023-05-08T08:41:25.370Z,1.50
2023-05-08T08:42:49.715Z,1.90
2023-05-08T08:44:13.136Z,1.33
2023-05-08T08:45:38.096Z,1.50
2023-05-08T08:47:02.249Z,1.98
2023-05-08T08:48:29.578Z,1.90
2023-05-08T08:49:52.187Z,1.83
2023-05-08T08:51:24.877Z,1.60
2023-05-08T08:52:52.210Z,1.90
2023-05-08T08:54:20.745Z,1.58
2023-05-08T08:55:47.319Z,1.88
2023-05-08T08:57:11.912Z,1.45
2023-05-08T08:58:39.363Z,1.70
2023-05-08T09:00:06.173Z,1.48
2023-05-08T09:01:31.945Z,0.95
2023-05-08T09:02:54.647Z,1.60
2023-05-08T09:04:19.082Z,1.95
2023-05-08T09:05:42.900Z,1.45
2023-05-08T09:07:08.657Z,1.50
2023-05-08T09:08:31.090Z,1.52
2023-05-08T09:09:55.050Z,1.80
2023-05-08T09:11:18.478Z,1.60
2023-05-08T09:12:42.031Z,1.48
2023-05-08T09:14:05.518Z,1.55
2023-05-08T09:15:28.991Z,1.98
2023-05-08T09:16:54.478Z,1.35
2023-05-08T09:18:19.263Z,1.88
2023-05-08T09:19:42.782Z,2.10
2023-05-08T09:21:09.688Z,1.70
2023-05-08T09:22:33.564Z,1.50
2023-05-08T09:23:58.057Z,1.40
2023-05-08T09:25:21.763Z,2.13
2023-05-08T09:26:45.253Z,2.10
2023-05-08T09:28:19.628Z,1.55
2023-05-08T09:29:42.074Z,1.52
2023-05-08T09:31:06.388Z,1.85
2023-05-08T09:32:31.629Z,2.30
2023-05-08T09:33:55.852Z,1.60
2023-05-08T09:35:19.502Z,1.90
2023-05-08T09:36:42.905Z,1.92
2023-05-08T09:38:06.553Z,1.80
2023-05-08T09:39:30.006Z,1.80
2023-05-08T09:41:08.167Z,1.33
2023-05-08T09:42:39.553Z,1.67
2023-05-08T09:44:04.136Z,1.80
2023-05-08T09:45:29.706Z,2.25
2023-05-08T09:46:53.881Z,1.60
2023-05-08T09:48:19.138Z,1.73
2023-05-08T09:49:46.460Z,1.50
2023-05-08T09:51:11.824Z,1.40
2023-05-08T09:52:36.681Z,1.90
2023-05-08T09:54:04.021Z,1.85
2023-05-08T09:55:27.576Z,1.80
2023-05-08T09:56:50.856Z,1.40
2023-05-08T09:58:14.460Z,1.70
2023-05-08T09:59:38.103Z,1.27
2023-05-08T10:01:01.559Z,1.63
2023-05-08T10:02:27.954Z,1.42
2023-05-08T10:03:53.014Z,1.35
2023-05-08T10:05:25.767Z,1.40
2023-05-08T10:06:58.421Z,1.42
2023-05-08T10:08:23.633Z,1.65
2023-05-08T10:10:00.977Z,1.52
2023-05-08T10:11:23.458Z,1.70
2023-05-08T10:12:46.946Z,1.58
2023-05-08T10:14:10.822Z,1.67
2023-05-08T10:15:35.252Z,1.30
2023-05-08T10:17:00.261Z,1.00
2023-05-08T10:18:26.369Z,1.33
2023-05-08T10:19:55.359Z,1.23
2023-05-08T10:21:20.426Z,1.40
2023-05-08T10:22:45.276Z,0.80
2023-05-08T10:24:14.536Z,1.80
2023-05-08T10:25:40.326Z,1.30
2023-05-08T10:27:13.502Z,1.40
2023-05-08T10:28:43.746Z,1.50
2023-05-08T10:30:08.324Z,1.40
2023-05-08T10:31:35.755Z,1.02
2023-05-08T10:33:00.306Z,1.55
2023-05-08T10:34:25.810Z,1.60
2023-05-08T10:35:50.881Z,1.15
2023-05-08T10:37:16.284Z,1.20
2023-05-08T10:38:40.120Z,1.15
2023-05-08T10:40:05.251Z,1.00
2023-05-08T10:41:29.079Z,1.27
2023-05-08T10:42:52.980Z,1.20
2023-05-08T10:44:16.798Z,1.00
2023-05-08T10:45:40.197Z,1.00
2023-05-08T10:47:09.897Z,1.60
2023-05-08T10:48:41.254Z,0.95
2023-05-08T10:50:12.221Z,1.20
2023-05-08T10:51:43.302Z,1.30
2023-05-08T10:53:09.315Z,1.70
2023-05-08T10:54:39.767Z,1.35
2023-05-08T10:56:03.606Z,1.30
2023-05-08T10:57:27.046Z,1.70
2023-05-08T10:58:57.572Z,0.98
2023-05-08T11:00:22.786Z,0.77
2023-05-08T11:01:50.120Z,1.50
2023-05-08T11:03:23.556Z,1.40
2023-05-08T11:04:53.729Z,1.45
2023-05-08T11:06:17.349Z,1.45
2023-05-08T11:07:57.528Z,1.23
2023-05-08T11:09:23.104Z,0.85
2023-05-08T11:10:49.722Z,1.13
2023-05-08T11:12:25.214Z,1.55
2023-05-08T11:13:51.502Z,1.30
2023-05-08T11:15:14.926Z,1.05
2023-05-08T11:17:09.766Z,1.42
2023-05-08T11:20:03.615Z,1.42
2023-05-08T11:21:26.632Z,1.48
2023-05-08T11:22:50.048Z,1.20
2023-05-08T11:24:17.000Z,1.65
2023-05-08T11:25:44.193Z,1.48
2023-05-08T11:27:06.862Z,1.23
2023-05-08T11:28:33.297Z,1.27
2023-05-08T11:30:21.936Z,1.08
2023-05-08T11:31:52.458Z,1.17
2023-05-08T11:33:16.292Z,1.20
2023-05-08T11:34:50.048Z,1.83
2023-05-08T11:36:17.427Z,1.70
2023-05-08T11:37:39.835Z,1.10
2023-05-08T11:39:08.701Z,1.25
2023-05-08T11:40:49.639Z,1.15
2023-05-08T11:42:34.920Z,1.13
2023-05-08T11:44:18.470Z,0.95
2023-05-08T11:45:41.871Z,1.63
2023-05-08T11:47:06.389Z,0.80
2023-05-08T11:48:31.541Z,1.40
2023-05-08T11:49:57.128Z,1.30
2023-05-08T11:51:20.894Z,1.48
2023-05-08T11:52:44.358Z,1.50
2023-05-08T11:54:06.926Z,1.20
2023-05-08T11:55:30.760Z,1.08
2023-05-08T11:56:56.299Z,1.27
2023-05-08T11:58:19.861Z,1.85
2023-05-08T11:59:43.665Z,1.35
2023-05-08T12:01:07.780Z,1.40
2023-05-08T12:02:41.629Z,1.50
2023-05-08T12:04:07.157Z,1.45
2023-05-08T12:05:31.642Z,1.17
2023-05-08T12:06:59.840Z,1.27
2023-05-08T12:08:23.372Z,0.98
2023-05-08T12:09:48.514Z,1.40
2023-05-08T12:11:12.879Z,1.42
2023-05-08T12:12:41.828Z,1.50
2023-05-08T12:14:05.414Z,1.10
2023-05-08T12:15:28.089Z,1.20
2023-05-08T12:16:52.906Z,1.42
2023-05-08T12:18:16.994Z,1.50
2023-05-08T12:19:40.551Z,1.17
2023-05-08T12:21:04.016Z,1.13
2023-05-08T12:22:27.511Z,1.42
2023-05-08T12:23:51.073Z,1.52
2023-05-08T12:25:14.808Z,1.30
2023-05-08T12:26:37.891Z,1.50
2023-05-08T12:28:02.702Z,1.40
2023-05-08T12:29:26.234Z,0.93
2023-05-08T12:30:50.138Z,1.33
2023-05-08T12:32:13.856Z,1.65
2023-05-08T12:33:38.639Z,1.70
2023-05-08T12:35:02.356Z,0.90
2023-05-08T12:36:27.162Z,1.20
2023-05-08T12:37:52.993Z,1.35
2023-05-08T12:39:18.185Z,1.52
2023-05-08T12:40:43.729Z,1.23
2023-05-08T12:42:07.241Z,1.35
2023-05-08T12:43:36.106Z,1.55
2023-05-08T12:44:59.482Z,1.05
2023-05-08T12:46:23.013Z,1.30
2023-05-08T12:47:49.625Z,1.70
2023-05-08T12:49:13.210Z,1.50
2023-05-08T12:50:37.734Z,1.63
2023-05-08T12:52:05.264Z,1.08
2023-05-08T12:53:32.183Z,1.33
2023-05-08T12:54:55.714Z,1.00
2023-05-08T12:56:25.613Z,0.70
2023-05-08T12:57:49.137Z,1.45
2023-05-08T12:59:14.354Z,1.65
2023-05-08T13:00:38.830Z,1.40
2023-05-08T13:02:02.757Z,1.05
2023-05-08T13:03:27.328Z,1.35
2023-05-08T13:04:55.851Z,1.38
2023-05-08T13:06:23.104Z,1.25
2023-05-08T13:07:46.965Z,1.40
2023-05-08T13:09:10.439Z,1.17
2023-05-08T13:10:51.098Z,1.23
2023-05-08T13:12:14.548Z,0.75
2023-05-08T13:13:39.410Z,1.70
2023-05-08T13:15:04.877Z,1.38
2023-05-08T13:16:28.494Z,1.15
2023-05-08T13:17:53.126Z,1.33
2023-05-08T13:19:16.966Z,1.63
2023-05-08T13:20:40.984Z,1.10
2023-05-08T13:22:04.505Z,1.00
2023-05-08T13:23:29.342Z,1.23
2023-05-08T13:24:52.857Z,1.42
2023-05-08T13:26:16.600Z,1.35
2023-05-08T13:27:40.092Z,1.67
2023-05-08T13:29:03.458Z,1.40
2023-05-08T13:30:29.144Z,1.55
2023-05-08T13:31:52.787Z,1.50
2023-05-08T13:33:16.309Z,1.08
2023-05-08T13:34:47.273Z,1.38
2023-05-08T13:36:13.793Z,1.40
2023-05-08T13:37:37.250Z,1.77
2023-05-08T13:39:00.886Z,1.33
2023-05-08T13:40:24.790Z,1.42
2023-05-08T13:41:48.342Z,1.30
2023-05-08T13:43:11.777Z,1.13
2023-05-08T13:44:35.242Z,1.58
2023-05-08T13:46:01.030Z,1.15
2023-05-08T13:47:24.611Z,1.27
2023-05-08T13:48:48.109Z,1.27
2023-05-08T13:50:13.146Z,1.23
2023-05-08T13:51:36.600Z,1.30
2023-05-08T13:53:00.635Z,1.45
2023-05-08T13:54:23.020Z,1.60
2023-05-08T13:55:46.461Z,1.20
2023-05-08T13:57:09.981Z,1.15
2023-05-08T13:58:33.592Z,1.00
2023-05-08T13:59:57.094Z,1.30
2023-05-08T14:01:26.276Z,1.05
2023-05-08T14:02:52.393Z,1.30
2023-05-08T14:04:18.267Z,1.10
2023-05-08T14:05:41.621Z,1.38
2023-05-08T14:07:05.015Z,1.55
2023-05-08T14:08:28.471Z,1.05
2023-05-08T14:09:53.553Z,1.48
2023-05-08T14:11:17.125Z,1.40
2023-05-08T14:12:40.863Z,2.00
2023-05-08T14:14:04.941Z,1.10
2023-05-08T14:15:36.492Z,1.40
2023-05-08T14:17:02.309Z,1.58
2023-05-08T14:18:25.825Z,1.58
2023-05-08T14:19:53.333Z,1.48
2023-05-08T14:21:16.740Z,1.23
2023-05-08T14:22:40.363Z,1.42
2023-05-08T14:24:03.890Z,1.30
2023-05-08T14:25:27.414Z,0.95
2023-05-08T14:26:49.852Z,1.58
2023-05-08T14:28:13.259Z,0.93
2023-05-08T14:29:36.647Z,1.35
2023-05-08T14:31:00.122Z,1.33
2023-05-08T14:32:25.041Z,1.20
2023-05-08T14:33:48.505Z,1.30
2023-05-08T14:35:14.099Z,1.48
2023-05-08T14:36:38.085Z,1.25
2023-05-08T14:38:02.540Z,1.52
2023-05-08T14:39:26.066Z,1.85
2023-05-08T14:40:51.639Z,1.50
2023-05-08T14:42:22.707Z,1.10
2023-05-08T14:43:47.012Z,1.80
2023-05-08T14:45:11.383Z,1.67
2023-05-08T14:46:34.917Z,1.60
2023-05-08T14:47:59.906Z,1.40
2023-05-08T14:49:36.549Z,1.27
2023-05-08T14:51:01.262Z,1.60
2023-05-08T14:52:24.719Z,1.50
2023-05-08T14:53:48.218Z,1.42
2023-05-08T14:55:13.372Z,1.63
2023-05-08T14:58:20.585Z,1.50
2023-05-08T14:59:52.462Z,1.67
2023-05-08T15:01:18.719Z,1.20
2023-05-08T15:02:42.283Z,1.50
2023-05-08T15:04:07.373Z,1.45
2023-05-08T15:05:31.186Z,1.50
2023-05-08T15:06:54.682Z,1.35
2023-05-08T15:08:20.894Z,1.15
2023-05-08T15:09:44.428Z,1.38
2023-05-08T15:11:07.898Z,1.27
2023-05-08T15:12:33.865Z,1.52
2023-05-08T15:13:57.240Z,1.45
2023-05-08T15:15:20.660Z,1.10
2023-05-08T15:16:44.223Z,1.65
2023-05-08T15:18:08.819Z,1.40
2023-05-08T15:19:33.694Z,1.45
2023-05-08T15:20:57.998Z,1.45
2023-05-08T15:22:21.405Z,1.42
2023-05-08T15:23:44.842Z,1.20
2023-05-08T15:25:09.055Z,1.88
2023-05-08T15:26:32.454Z,1.42
2023-05-08T15:27:57.699Z,1.70
2023-05-08T15:29:21.894Z,1.40
2023-05-08T15:30:47.563Z,1.77
2023-05-08T15:32:11.061Z,1.48
2023-05-08T15:33:34.579Z,1.50
2023-05-08T15:34:59.468Z,1.42
2023-05-08T15:36:23.114Z,1.20
2023-05-08T15:37:46.659Z,1.35
2023-05-08T15:39:10.505Z,1.50
2023-05-08T15:40:33.960Z,1.70
2023-05-08T15:41:57.365Z,1.60
2023-05-08T15:43:20.805Z,1.90
2023-05-08T15:44:54.664Z,1.80
2023-05-08T15:46:18.654Z,1.40
2023-05-08T15:47:42.179Z,1.63
2023-05-08T15:49:05.677Z,1.65
2023-05-08T15:50:29.506Z,1.83
2023-05-08T15:51:52.986Z,1.55
2023-05-08T15:53:16.372Z,1.70
2023-05-08T15:54:38.891Z,1.83
2023-05-08T15:56:02.365Z,1.88
2023-05-08T15:57:27.018Z,1.90
2023-05-08T15:58:50.507Z,1.80
2023-05-08T16:00:15.185Z,1.92
2023-05-08T16:01:40.805Z,2.08
2023-05-08T16:03:04.406Z,1.83
2023-05-08T16:04:27.922Z,2.00
2023-05-08T16:05:52.730Z,1.60
2023-05-08T16:07:15.233Z,2.63
2023-05-08T16:08:38.741Z,1.50
2023-05-08T16:10:01.284Z,1.48
2023-05-08T16:11:24.771Z,1.30
2023-05-08T16:12:48.371Z,1.80
2023-05-08T16:14:12.012Z,1.70
2023-05-08T16:15:34.633Z,1.55
2023-05-08T16:16:58.106Z,1.45
2023-05-08T16:18:21.925Z,1.70
2023-05-08T16:19:48.678Z,1.33
2023-05-08T16:21:13.460Z,1.15
2023-05-08T16:22:36.854Z,1.38
2023-05-08T16:24:00.469Z,1.48
2023-05-08T16:25:24.079Z,1.30
2023-05-08T16:26:48.032Z,1.85
2023-05-08T16:28:11.705Z,1.45
2023-05-08T16:29:38.081Z,1.83
2023-05-08T16:31:02.013Z,1.63
2023-05-08T16:32:27.142Z,1.45
2023-05-08T16:33:49.708Z,1.35
2023-05-08T16:35:13.606Z,1.77
2023-05-08T16:36:37.978Z,2.03
2023-05-08T16:38:02.910Z,1.38
2023-05-08T16:39:25.382Z,1.50
2023-05-08T16:40:48.835Z,1.90
2023-05-08T16:42:12.537Z,1.40
2023-05-08T16:43:35.987Z,1.80
2023-05-08T16:44:59.626Z,1.90
2023-05-08T16:46:29.834Z,1.50
2023-05-08T16:47:54.606Z,1.17
2023-05-08T16:49:18.108Z,1.80
2023-05-08T16:50:41.666Z,1.60
2023-05-08T16:52:06.524Z,1.67
2023-05-08T16:53:32.041Z,1.73
2023-05-08T16:54:55.575Z,1.60
2023-05-08T16:56:19.026Z,1.52
2023-05-08T16:57:42.458Z,1.83
2023-05-08T16:59:06.956Z,1.60
2023-05-08T17:00:30.408Z,1.75
2023-05-08T17:01:55.529Z,1.63
2023-05-08T17:03:19.015Z,1.70
2023-05-08T17:04:42.634Z,1.40
2023-05-08T17:06:08.706Z,1.52
2023-05-08T17:07:33.588Z,1.35
2023-05-08T17:08:56.047Z,1.35
2023-05-08T17:10:19.553Z,1.17
2023-05-08T17:11:42.156Z,1.60
2023-05-08T17:13:05.645Z,1.70
2023-05-08T17:14:29.251Z,1.58
2023-05-08T17:15:53.007Z,1.60
2023-05-08T17:17:16.669Z,1.48
2023-05-08T17:18:40.682Z,1.92
2023-05-08T17:20:04.852Z,1.45
2023-05-08T17:21:30.964Z,1.30
2023-05-08T17:22:56.287Z,1.42
2023-05-08T17:24:20.162Z,2.03
2023-05-08T17:25:43.677Z,1.60
2023-05-08T17:27:10.275Z,1.70
2023-05-08T17:28:33.752Z,1.23
2023-05-08T17:29:57.265Z,1.48
2023-05-08T17:31:21.361Z,1.25
2023-05-08T17:32:47.204Z,1.73
2023-05-08T17:34:10.719Z,1.35
2023-05-08T17:35:34.238Z,1.80
2023-05-08T17:37:00.498Z,1.40
2023-05-08T17:38:26.455Z,1.60
2023-05-08T17:39:50.215Z,1.75
2023-05-08T17:41:13.942Z,1.00
2023-05-08T17:42:37.971Z,1.33
2023-05-08T17:44:01.447Z,1.52
2023-05-08T17:45:24.975Z,1.60
2023-05-08T17:46:48.444Z,1.48
2023-05-08T17:48:13.882Z,1.45
2023-05-08T17:49:37.296Z,1.55
2023-05-08T17:51:02.387Z,1.20
2023-05-08T17:52:25.875Z,1.48
2023-05-08T17:53:53.917Z,1.75
2023-05-08T17:55:17.371Z,1.45
2023-05-08T17:56:40.908Z,1.58
2023-05-08T17:58:04.355Z,1.73
2023-05-08T17:59:30.714Z,1.40
2023-05-08T18:00:55.202Z,1.85
2023-05-08T18:02:18.705Z,1.30
2023-05-08T18:03:42.449Z,1.35
2023-05-08T18:05:05.630Z,1.90
2023-05-08T18:06:29.220Z,1.23
2023-05-08T18:07:53.956Z,1.70
2023-05-08T18:09:19.271Z,2.15
2023-05-08T18:10:41.784Z,1.70
2023-05-08T18:12:05.613Z,1.85
2023-05-08T18:13:30.972Z,1.65
2023-05-08T18:14:54.693Z,1.48
2023-05-08T18:16:19.806Z,1.13
2023-05-08T18:17:43.450Z,1.52
2023-05-08T18:19:06.876Z,1.70
2023-05-08T18:20:30.369Z,1.70
2023-05-08T18:21:54.019Z,1.48
2023-05-08T18:23:18.233Z,1.40
2023-05-08T18:24:43.188Z,1.73
2023-05-08T18:26:07.438Z,1.90
2023-05-08T18:27:33.434Z,2.70
2023-05-08T18:28:57.788Z,1.70
2023-05-08T18:30:21.234Z,1.88
2023-05-08T18:31:44.966Z,1.88
2023-05-08T18:33:08.538Z,1.80
2023-05-08T18:34:35.270Z,1.60
2023-05-08T18:35:58.936Z,1.67
2023-05-08T18:37:23.094Z,1.70
2023-05-08T18:38:46.564Z,1.45
2023-05-08T18:40:13.087Z,1.58
2023-05-08T18:41:36.661Z,1.55
2023-05-08T18:42:59.129Z,1.30
2023-05-08T18:44:22.617Z,1.77
2023-05-08T18:45:46.075Z,1.50
2023-05-08T18:47:09.731Z,2.05
2023-05-08T18:48:35.114Z,1.55
2023-05-08T18:49:59.917Z,1.70
2023-05-08T18:51:23.510Z,1.77
2023-05-08T18:52:46.947Z,1.42
2023-05-08T18:54:10.500Z,1.70
2023-05-08T18:55:35.698Z,2.85
2023-05-08T18:56:59.173Z,1.88
2023-05-08T18:58:21.644Z,1.80